sensor_id;sensor_type;location;lat;lon;timestamp;P1;durP1;ratioP1;P2;durP2;ratioP2
23001;SDS011;11667;51.706;4.856;2022-12-05T00:00:30;104.30;;;42.10;;
23001;SDS011;11667;51.706;4.856;2022-12-05T00:03:03;113.45;;;44.08;;
23001;SDS011;11667;51.706;4.856;2022-12-05T00:05:33;104.67;;;43.08;;
23001;SDS011;11667;51.706;4.856;2022-12-05T00:08:02;104.60;;;44.00;;
23001;SDS011;11667;51.706;4.856;2022-12-05T00:10:34;109.83;;;43.42;;
23001;SDS011;11667;51.706;4.856;2022-12-05T00:13:05;100.92;;;42.38;;
23001;SDS011;11667;51.706;4.856;2022-12-05T00:15:36;107.78;;;43.85;;
23001;SDS011;11667;51.706;4.856;2022-12-05T00:18:06;107.17;;;44.23;;
23001;SDS011;11667;51.706;4.856;2022-12-05T00:20:36;112.12;;;44.08;;
23001;SDS011;11667;51.706;4.856;2022-12-05T00:23:05;103.10;;;43.02;;
23001;SDS011;11667;51.706;4.856;2022-12-05T00:25:35;103.92;;;42.83;;
23001;SDS011;11667;51.706;4.856;2022-12-05T00:28:04;105.40;;;41.60;;
23001;SDS011;11667;51.706;4.856;2022-12-05T00:30:33;108.97;;;44.27;;
23001;SDS011;11667;51.706;4.856;2022-12-05T00:33:03;107.67;;;43.65;;
23001;SDS011;11667;51.706;4.856;2022-12-05T00:35:32;108.87;;;44.03;;
23001;SDS011;11667;51.706;4.856;2022-12-05T00:38:02;104.87;;;43.60;;
23001;SDS011;11667;51.706;4.856;2022-12-05T00:40:33;107.35;;;43.73;;
23001;SDS011;11667;51.706;4.856;2022-12-05T00:43:03;106.45;;;44.83;;
23001;SDS011;11667;51.706;4.856;2022-12-05T00:45:32;112.77;;;45.92;;
23001;SDS011;11667;51.706;4.856;2022-12-05T00:48:01;109.37;;;44.90;;
23001;SDS011;11667;51.706;4.856;2022-12-05T00:50:32;108.95;;;44.95;;
23001;SDS011;11667;51.706;4.856;2022-12-05T00:53:01;104.55;;;43.08;;
23001;SDS011;11667;51.706;4.856;2022-12-05T00:55:31;108.32;;;44.35;;
23001;SDS011;11667;51.706;4.856;2022-12-05T00:58:01;106.72;;;44.08;;
23001;SDS011;11667;51.706;4.856;2022-12-05T01:00:31;111.03;;;44.70;;
23001;SDS011;11667;51.706;4.856;2022-12-05T01:03:00;103.22;;;44.42;;
23001;SDS011;11667;51.706;4.856;2022-12-05T01:05:32;108.95;;;44.15;;
23001;SDS011;11667;51.706;4.856;2022-12-05T01:08:01;110.12;;;46.90;;
23001;SDS011;11667;51.706;4.856;2022-12-05T01:10:31;111.20;;;44.40;;
23001;SDS011;11667;51.706;4.856;2022-12-05T01:13:00;107.37;;;44.60;;
23001;SDS011;11667;51.706;4.856;2022-12-05T01:15:30;109.25;;;44.50;;
23001;SDS011;11667;51.706;4.856;2022-12-05T01:18:00;112.45;;;45.85;;
23001;SDS011;11667;51.706;4.856;2022-12-05T01:20:30;111.60;;;45.10;;
23001;SDS011;11667;51.706;4.856;2022-12-05T01:22:59;114.57;;;45.65;;
23001;SDS011;11667;51.706;4.856;2022-12-05T01:25:28;109.92;;;46.02;;
23001;SDS011;11667;51.706;4.856;2022-12-05T01:27:57;110.22;;;45.10;;
23001;SDS011;11667;51.706;4.856;2022-12-05T01:30:27;111.22;;;44.00;;
23001;SDS011;11667;51.706;4.856;2022-12-05T01:32:57;106.87;;;44.42;;
23001;SDS011;11667;51.706;4.856;2022-12-05T01:35:29;114.50;;;45.20;;
23001;SDS011;11667;51.706;4.856;2022-12-05T01:38:01;108.22;;;44.05;;
23001;SDS011;11667;51.706;4.856;2022-12-05T01:40:31;114.62;;;44.70;;
23001;SDS011;11667;51.706;4.856;2022-12-05T01:45:35;109.40;;;44.30;;
23001;SDS011;11667;51.706;4.856;2022-12-05T01:50:36;111.47;;;42.93;;
23001;SDS011;11667;51.706;4.856;2022-12-05T01:53:06;110.03;;;45.15;;
23001;SDS011;11667;51.706;4.856;2022-12-05T01:55:35;112.17;;;45.08;;
23001;SDS011;11667;51.706;4.856;2022-12-05T01:58:06;105.20;;;44.98;;
23001;SDS011;11667;51.706;4.856;2022-12-05T02:00:37;111.00;;;46.33;;
23001;SDS011;11667;51.706;4.856;2022-12-05T02:03:08;108.30;;;44.67;;
23001;SDS011;11667;51.706;4.856;2022-12-05T02:05:39;108.65;;;44.38;;
23001;SDS011;11667;51.706;4.856;2022-12-05T02:08:09;111.88;;;45.35;;
23001;SDS011;11667;51.706;4.856;2022-12-05T02:10:40;112.77;;;45.12;;
23001;SDS011;11667;51.706;4.856;2022-12-05T02:13:25;112.30;;;44.77;;
23001;SDS011;11667;51.706;4.856;2022-12-05T02:16:14;109.42;;;44.93;;
23001;SDS011;11667;51.706;4.856;2022-12-05T02:19:00;115.03;;;46.02;;
23001;SDS011;11667;51.706;4.856;2022-12-05T02:21:39;115.20;;;45.43;;
23001;SDS011;11667;51.706;4.856;2022-12-05T02:32:42;112.68;;;45.33;;
23001;SDS011;11667;51.706;4.856;2022-12-05T02:38:37;110.40;;;44.70;;
23001;SDS011;11667;51.706;4.856;2022-12-05T02:41:11;110.63;;;45.00;;
23001;SDS011;11667;51.706;4.856;2022-12-05T02:43:46;112.42;;;45.10;;
23001;SDS011;11667;51.706;4.856;2022-12-05T02:46:24;110.57;;;44.27;;
23001;SDS011;11667;51.706;4.856;2022-12-05T02:48:56;118.70;;;45.25;;
23001;SDS011;11667;51.706;4.856;2022-12-05T02:53:58;111.10;;;44.58;;
23001;SDS011;11667;51.706;4.856;2022-12-05T02:56:29;118.70;;;44.73;;
23001;SDS011;11667;51.706;4.856;2022-12-05T02:59:00;119.10;;;45.58;;
23001;SDS011;11667;51.706;4.856;2022-12-05T03:01:30;110.35;;;44.23;;
23001;SDS011;11667;51.706;4.856;2022-12-05T03:04:00;114.22;;;45.17;;
23001;SDS011;11667;51.706;4.856;2022-12-05T03:06:37;120.53;;;45.67;;
23001;SDS011;11667;51.706;4.856;2022-12-05T03:09:11;118.05;;;46.77;;
23001;SDS011;11667;51.706;4.856;2022-12-05T03:12:09;120.57;;;46.05;;
23001;SDS011;11667;51.706;4.856;2022-12-05T03:14:21;111.75;;;45.08;;
23001;SDS011;11667;51.706;4.856;2022-12-05T03:16:53;120.20;;;46.23;;
23001;SDS011;11667;51.706;4.856;2022-12-05T03:19:26;118.55;;;45.83;;
23001;SDS011;11667;51.706;4.856;2022-12-05T03:22:07;119.00;;;45.58;;
23001;SDS011;11667;51.706;4.856;2022-12-05T03:24:41;118.50;;;45.70;;
23001;SDS011;11667;51.706;4.856;2022-12-05T03:27:20;121.07;;;46.90;;
23001;SDS011;11667;51.706;4.856;2022-12-05T03:30:04;127.45;;;46.00;;
23001;SDS011;11667;51.706;4.856;2022-12-05T03:32:42;121.10;;;45.35;;
23001;SDS011;11667;51.706;4.856;2022-12-05T03:35:45;119.08;;;45.30;;
23001;SDS011;11667;51.706;4.856;2022-12-05T03:38:27;120.70;;;45.45;;
23001;SDS011;11667;51.706;4.856;2022-12-05T03:44:12;120.05;;;46.35;;
23001;SDS011;11667;51.706;4.856;2022-12-05T03:46:43;124.58;;;47.45;;
23001;SDS011;11667;51.706;4.856;2022-12-05T03:49:23;120.20;;;45.73;;
23001;SDS011;11667;51.706;4.856;2022-12-05T03:52:02;122.42;;;45.08;;
23001;SDS011;11667;51.706;4.856;2022-12-05T03:59:38;129.15;;;44.75;;
23001;SDS011;11667;51.706;4.856;2022-12-05T04:02:11;118.17;;;45.33;;
23001;SDS011;11667;51.706;4.856;2022-12-05T04:04:45;126.47;;;46.05;;
23001;SDS011;11667;51.706;4.856;2022-12-05T04:07:15;125.12;;;45.38;;
23001;SDS011;11667;51.706;4.856;2022-12-05T04:09:51;129.95;;;47.40;;
23001;SDS011;11667;51.706;4.856;2022-12-05T04:12:21;130.00;;;47.17;;
23001;SDS011;11667;51.706;4.856;2022-12-05T04:14:54;127.97;;;46.95;;
23001;SDS011;11667;51.706;4.856;2022-12-05T04:17:47;130.45;;;46.75;;
23001;SDS011;11667;51.706;4.856;2022-12-05T04:20:31;130.25;;;45.23;;
23001;SDS011;11667;51.706;4.856;2022-12-05T04:23:19;133.72;;;47.27;;
23001;SDS011;11667;51.706;4.856;2022-12-05T04:25:58;121.72;;;46.30;;
23001;SDS011;11667;51.706;4.856;2022-12-05T04:28:33;127.40;;;45.90;;
23001;SDS011;11667;51.706;4.856;2022-12-05T04:31:18;124.80;;;45.85;;
23001;SDS011;11667;51.706;4.856;2022-12-05T04:34:02;129.10;;;46.08;;
23001;SDS011;11667;51.706;4.856;2022-12-05T04:36:51;127.47;;;46.88;;
23001;SDS011;11667;51.706;4.856;2022-12-05T04:42:07;130.85;;;45.75;;
23001;SDS011;11667;51.706;4.856;2022-12-05T04:44:49;135.22;;;47.30;;
23001;SDS011;11667;51.706;4.856;2022-12-05T04:47:13;121.80;;;44.83;;
23001;SDS011;11667;51.706;4.856;2022-12-05T04:49:44;133.95;;;45.85;;
23001;SDS011;11667;51.706;4.856;2022-12-05T04:52:16;124.60;;;44.27;;
23001;SDS011;11667;51.706;4.856;2022-12-05T04:54:47;130.80;;;45.33;;
23001;SDS011;11667;51.706;4.856;2022-12-05T04:57:24;129.85;;;45.03;;
23001;SDS011;11667;51.706;4.856;2022-12-05T04:59:55;120.70;;;45.10;;
23001;SDS011;11667;51.706;4.856;2022-12-05T05:02:30;127.20;;;45.12;;
23001;SDS011;11667;51.706;4.856;2022-12-05T05:07:27;120.28;;;43.52;;
23001;SDS011;11667;51.706;4.856;2022-12-05T05:09:56;131.55;;;47.03;;
23001;SDS011;11667;51.706;4.856;2022-12-05T05:12:26;128.87;;;46.83;;
23001;SDS011;11667;51.706;4.856;2022-12-05T05:14:55;127.75;;;45.20;;
23001;SDS011;11667;51.706;4.856;2022-12-05T05:17:24;132.57;;;45.12;;
23001;SDS011;11667;51.706;4.856;2022-12-05T05:19:54;129.12;;;45.88;;
23001;SDS011;11667;51.706;4.856;2022-12-05T05:22:25;134.80;;;48.33;;
23001;SDS011;11667;51.706;4.856;2022-12-05T05:24:54;122.80;;;46.70;;
23001;SDS011;11667;51.706;4.856;2022-12-05T05:27:24;126.07;;;46.25;;
23001;SDS011;11667;51.706;4.856;2022-12-05T05:29:53;139.70;;;45.78;;
23001;SDS011;11667;51.706;4.856;2022-12-05T05:32:23;123.82;;;46.63;;
23001;SDS011;11667;51.706;4.856;2022-12-05T05:34:52;130.03;;;46.08;;
23001;SDS011;11667;51.706;4.856;2022-12-05T05:37:21;120.20;;;44.90;;
23001;SDS011;11667;51.706;4.856;2022-12-05T05:39:51;127.45;;;46.13;;
23001;SDS011;11667;51.706;4.856;2022-12-05T05:42:20;128.40;;;46.08;;
23001;SDS011;11667;51.706;4.856;2022-12-05T05:44:49;131.57;;;46.88;;
23001;SDS011;11667;51.706;4.856;2022-12-05T05:47:19;130.45;;;45.73;;
23001;SDS011;11667;51.706;4.856;2022-12-05T05:49:48;132.87;;;46.90;;
23001;SDS011;11667;51.706;4.856;2022-12-05T05:52:17;129.42;;;46.80;;
23001;SDS011;11667;51.706;4.856;2022-12-05T05:54:46;131.27;;;45.70;;
23001;SDS011;11667;51.706;4.856;2022-12-05T05:57:16;133.50;;;47.20;;
23001;SDS011;11667;51.706;4.856;2022-12-05T05:59:47;127.42;;;44.98;;
23001;SDS011;11667;51.706;4.856;2022-12-05T06:02:16;136.60;;;47.17;;
23001;SDS011;11667;51.706;4.856;2022-12-05T06:04:45;131.57;;;47.58;;
23001;SDS011;11667;51.706;4.856;2022-12-05T06:07:14;131.45;;;46.70;;
23001;SDS011;11667;51.706;4.856;2022-12-05T06:09:44;132.15;;;45.80;;
23001;SDS011;11667;51.706;4.856;2022-12-05T06:12:13;125.27;;;44.53;;
23001;SDS011;11667;51.706;4.856;2022-12-05T06:14:42;138.50;;;46.48;;
23001;SDS011;11667;51.706;4.856;2022-12-05T06:17:12;121.77;;;44.15;;
23001;SDS011;11667;51.706;4.856;2022-12-05T06:19:41;133.50;;;46.15;;
23001;SDS011;11667;51.706;4.856;2022-12-05T06:22:11;130.75;;;44.95;;
23001;SDS011;11667;51.706;4.856;2022-12-05T06:24:40;122.50;;;43.55;;
23001;SDS011;11667;51.706;4.856;2022-12-05T06:27:09;117.35;;;43.17;;
23001;SDS011;11667;51.706;4.856;2022-12-05T06:29:38;124.12;;;43.40;;
23001;SDS011;11667;51.706;4.856;2022-12-05T06:32:08;118.80;;;42.95;;
23001;SDS011;11667;51.706;4.856;2022-12-05T06:34:37;111.90;;;40.80;;
23001;SDS011;11667;51.706;4.856;2022-12-05T06:37:07;118.20;;;41.25;;
23001;SDS011;11667;51.706;4.856;2022-12-05T06:39:36;116.80;;;40.78;;
23001;SDS011;11667;51.706;4.856;2022-12-05T06:42:05;118.30;;;41.80;;
23001;SDS011;11667;51.706;4.856;2022-12-05T06:44:34;118.42;;;42.43;;
23001;SDS011;11667;51.706;4.856;2022-12-05T06:47:04;114.15;;;41.55;;
23001;SDS011;11667;51.706;4.856;2022-12-05T06:49:33;122.15;;;42.67;;
23001;SDS011;11667;51.706;4.856;2022-12-05T06:52:04;116.47;;;41.68;;
23001;SDS011;11667;51.706;4.856;2022-12-05T06:54:33;114.12;;;41.37;;
23001;SDS011;11667;51.706;4.856;2022-12-05T06:57:03;105.12;;;39.95;;
23001;SDS011;11667;51.706;4.856;2022-12-05T06:59:32;114.30;;;41.40;;
23001;SDS011;11667;51.706;4.856;2022-12-05T07:02:01;110.65;;;40.80;;
23001;SDS011;11667;51.706;4.856;2022-12-05T07:04:33;110.20;;;40.83;;
23001;SDS011;11667;51.706;4.856;2022-12-05T07:07:02;109.65;;;40.75;;
23001;SDS011;11667;51.706;4.856;2022-12-05T07:09:32;110.03;;;39.48;;
23001;SDS011;11667;51.706;4.856;2022-12-05T07:14:44;110.10;;;40.28;;
23001;SDS011;11667;51.706;4.856;2022-12-05T07:17:16;115.90;;;40.92;;
23001;SDS011;11667;51.706;4.856;2022-12-05T07:19:46;106.37;;;40.12;;
23001;SDS011;11667;51.706;4.856;2022-12-05T07:22:17;109.03;;;40.88;;
23001;SDS011;11667;51.706;4.856;2022-12-05T07:24:47;111.88;;;40.15;;
23001;SDS011;11667;51.706;4.856;2022-12-05T07:27:19;110.78;;;40.00;;
23001;SDS011;11667;51.706;4.856;2022-12-05T07:29:50;111.75;;;42.00;;
23001;SDS011;11667;51.706;4.856;2022-12-05T07:32:19;109.95;;;39.67;;
23001;SDS011;11667;51.706;4.856;2022-12-05T07:34:48;115.08;;;40.95;;
23001;SDS011;11667;51.706;4.856;2022-12-05T07:37:19;116.45;;;40.70;;
23001;SDS011;11667;51.706;4.856;2022-12-05T07:39:50;115.12;;;40.55;;
23001;SDS011;11667;51.706;4.856;2022-12-05T07:42:22;110.90;;;39.33;;
23001;SDS011;11667;51.706;4.856;2022-12-05T07:44:51;108.85;;;40.12;;
23001;SDS011;11667;51.706;4.856;2022-12-05T07:47:21;112.28;;;39.88;;
23001;SDS011;11667;51.706;4.856;2022-12-05T07:49:50;109.95;;;39.78;;
23001;SDS011;11667;51.706;4.856;2022-12-05T07:52:19;118.25;;;41.80;;
23001;SDS011;11667;51.706;4.856;2022-12-05T07:54:49;109.07;;;39.65;;
23001;SDS011;11667;51.706;4.856;2022-12-05T07:57:18;112.60;;;39.40;;
23001;SDS011;11667;51.706;4.856;2022-12-05T07:59:47;115.17;;;39.83;;
23001;SDS011;11667;51.706;4.856;2022-12-05T08:02:17;111.65;;;40.12;;
23001;SDS011;11667;51.706;4.856;2022-12-05T08:04:47;112.90;;;39.38;;
23001;SDS011;11667;51.706;4.856;2022-12-05T08:07:16;110.65;;;40.92;;
23001;SDS011;11667;51.706;4.856;2022-12-05T08:09:45;109.10;;;40.25;;
23001;SDS011;11667;51.706;4.856;2022-12-05T08:12:14;104.87;;;40.03;;
23001;SDS011;11667;51.706;4.856;2022-12-05T08:14:44;102.30;;;38.25;;
23001;SDS011;11667;51.706;4.856;2022-12-05T08:17:13;108.65;;;39.48;;
23001;SDS011;11667;51.706;4.856;2022-12-05T08:19:42;106.90;;;40.52;;
23001;SDS011;11667;51.706;4.856;2022-12-05T08:22:12;103.70;;;39.10;;
23001;SDS011;11667;51.706;4.856;2022-12-05T08:24:41;101.42;;;38.92;;
23001;SDS011;11667;51.706;4.856;2022-12-05T08:27:10;106.15;;;39.92;;
23001;SDS011;11667;51.706;4.856;2022-12-05T08:29:40;103.45;;;38.42;;
23001;SDS011;11667;51.706;4.856;2022-12-05T08:32:09;107.10;;;38.55;;
23001;SDS011;11667;51.706;4.856;2022-12-05T08:34:38;105.30;;;39.08;;
23001;SDS011;11667;51.706;4.856;2022-12-05T08:37:07;103.15;;;38.80;;
23001;SDS011;11667;51.706;4.856;2022-12-05T08:39:37;116.00;;;39.88;;
23001;SDS011;11667;51.706;4.856;2022-12-05T08:42:06;109.60;;;38.38;;
23001;SDS011;11667;51.706;4.856;2022-12-05T08:44:35;99.70;;;37.15;;
23001;SDS011;11667;51.706;4.856;2022-12-05T08:47:04;109.07;;;39.10;;
23001;SDS011;11667;51.706;4.856;2022-12-05T08:49:34;107.80;;;39.08;;
23001;SDS011;11667;51.706;4.856;2022-12-05T08:52:03;103.78;;;38.78;;
23001;SDS011;11667;51.706;4.856;2022-12-05T08:54:32;97.97;;;38.78;;
23001;SDS011;11667;51.706;4.856;2022-12-05T08:57:02;109.25;;;39.00;;
23001;SDS011;11667;51.706;4.856;2022-12-05T08:59:31;109.52;;;38.85;;
23001;SDS011;11667;51.706;4.856;2022-12-05T09:02:00;106.35;;;38.35;;
23001;SDS011;11667;51.706;4.856;2022-12-05T09:04:30;104.70;;;38.42;;
23001;SDS011;11667;51.706;4.856;2022-12-05T09:07:00;100.33;;;39.78;;
23001;SDS011;11667;51.706;4.856;2022-12-05T09:09:30;104.05;;;38.85;;
23001;SDS011;11667;51.706;4.856;2022-12-05T09:12:00;99.20;;;38.38;;
23001;SDS011;11667;51.706;4.856;2022-12-05T09:14:29;103.22;;;39.23;;
23001;SDS011;11667;51.706;4.856;2022-12-05T09:16:59;97.78;;;37.38;;
23001;SDS011;11667;51.706;4.856;2022-12-05T09:19:29;104.78;;;38.53;;
23001;SDS011;11667;51.706;4.856;2022-12-05T09:21:58;110.12;;;39.67;;
23001;SDS011;11667;51.706;4.856;2022-12-05T09:24:27;101.05;;;38.65;;
23001;SDS011;11667;51.706;4.856;2022-12-05T09:26:57;102.60;;;38.65;;
23001;SDS011;11667;51.706;4.856;2022-12-05T09:29:26;101.70;;;38.63;;
23001;SDS011;11667;51.706;4.856;2022-12-05T09:31:57;100.78;;;37.03;;
23001;SDS011;11667;51.706;4.856;2022-12-05T09:34:26;103.75;;;39.90;;
23001;SDS011;11667;51.706;4.856;2022-12-05T09:36:55;103.92;;;38.35;;
23001;SDS011;11667;51.706;4.856;2022-12-05T09:39:28;103.83;;;37.98;;
23001;SDS011;11667;51.706;4.856;2022-12-05T09:44:41;102.80;;;39.10;;
23001;SDS011;11667;51.706;4.856;2022-12-05T09:47:33;104.70;;;39.18;;
23001;SDS011;11667;51.706;4.856;2022-12-05T09:55:48;108.03;;;39.75;;
23001;SDS011;11667;51.706;4.856;2022-12-05T10:07:10;96.15;;;36.95;;
23001;SDS011;11667;51.706;4.856;2022-12-05T10:10:16;92.10;;;36.60;;
23001;SDS011;11667;51.706;4.856;2022-12-05T10:18:00;88.80;;;35.98;;
23001;SDS011;11667;51.706;4.856;2022-12-05T10:20:38;98.92;;;38.23;;
23001;SDS011;11667;51.706;4.856;2022-12-05T10:23:17;97.62;;;36.13;;
23001;SDS011;11667;51.706;4.856;2022-12-05T10:31:03;93.20;;;35.88;;
23001;SDS011;11667;51.706;4.856;2022-12-05T10:33:36;99.97;;;37.70;;
23001;SDS011;11667;51.706;4.856;2022-12-05T10:36:09;93.45;;;37.25;;
23001;SDS011;11667;51.706;4.856;2022-12-05T10:38:42;90.00;;;36.38;;
23001;SDS011;11667;51.706;4.856;2022-12-05T10:41:13;94.35;;;37.23;;
23001;SDS011;11667;51.706;4.856;2022-12-05T10:43:43;94.37;;;37.80;;
23001;SDS011;11667;51.706;4.856;2022-12-05T10:46:13;85.47;;;37.00;;
23001;SDS011;11667;51.706;4.856;2022-12-05T10:48:44;91.72;;;37.08;;
23001;SDS011;11667;51.706;4.856;2022-12-05T10:51:15;83.58;;;36.70;;
23001;SDS011;11667;51.706;4.856;2022-12-05T10:53:47;89.85;;;37.50;;
23001;SDS011;11667;51.706;4.856;2022-12-05T10:59:04;89.80;;;36.30;;
23001;SDS011;11667;51.706;4.856;2022-12-05T11:04:18;81.90;;;36.40;;
23001;SDS011;11667;51.706;4.856;2022-12-05T11:06:46;85.15;;;36.88;;
23001;SDS011;11667;51.706;4.856;2022-12-05T11:09:17;77.70;;;34.83;;
23001;SDS011;11667;51.706;4.856;2022-12-05T11:11:55;77.35;;;34.23;;
23001;SDS011;11667;51.706;4.856;2022-12-05T11:14:21;77.42;;;33.95;;
23001;SDS011;11667;51.706;4.856;2022-12-05T11:16:53;71.57;;;32.55;;
23001;SDS011;11667;51.706;4.856;2022-12-05T11:19:28;68.07;;;32.43;;
23001;SDS011;11667;51.706;4.856;2022-12-05T11:22:01;68.92;;;32.33;;
23001;SDS011;11667;51.706;4.856;2022-12-05T11:24:32;69.65;;;32.35;;
23001;SDS011;11667;51.706;4.856;2022-12-05T11:32:41;64.97;;;31.87;;
23001;SDS011;11667;51.706;4.856;2022-12-05T11:37:56;67.03;;;31.37;;
23001;SDS011;11667;51.706;4.856;2022-12-05T11:46:05;63.02;;;30.00;;
23001;SDS011;11667;51.706;4.856;2022-12-05T11:51:36;61.48;;;28.95;;
23001;SDS011;11667;51.706;4.856;2022-12-05T11:57:23;54.93;;;27.50;;
23001;SDS011;11667;51.706;4.856;2022-12-05T12:00:20;59.45;;;29.15;;
23001;SDS011;11667;51.706;4.856;2022-12-05T12:03:13;61.98;;;29.95;;
23001;SDS011;11667;51.706;4.856;2022-12-05T12:08:36;55.45;;;26.87;;
23001;SDS011;11667;51.706;4.856;2022-12-05T12:14:00;61.40;;;28.47;;
23001;SDS011;11667;51.706;4.856;2022-12-05T12:22:23;60.33;;;26.70;;
23001;SDS011;11667;51.706;4.856;2022-12-05T12:44:59;55.55;;;27.02;;
23001;SDS011;11667;51.706;4.856;2022-12-05T12:50:23;51.40;;;25.00;;
23001;SDS011;11667;51.706;4.856;2022-12-05T12:53:01;54.18;;;26.12;;
23001;SDS011;11667;51.706;4.856;2022-12-05T13:04:07;52.45;;;26.23;;
23001;SDS011;11667;51.706;4.856;2022-12-05T13:07:02;50.77;;;25.07;;
23001;SDS011;11667;51.706;4.856;2022-12-05T13:09:34;49.25;;;24.25;;
23001;SDS011;11667;51.706;4.856;2022-12-05T13:12:16;49.48;;;24.85;;
23001;SDS011;11667;51.706;4.856;2022-12-05T13:14:40;49.73;;;24.98;;
23001;SDS011;11667;51.706;4.856;2022-12-05T13:17:18;48.65;;;24.32;;
23001;SDS011;11667;51.706;4.856;2022-12-05T13:19:48;46.92;;;24.52;;
23001;SDS011;11667;51.706;4.856;2022-12-05T13:22:21;48.60;;;24.07;;
23001;SDS011;11667;51.706;4.856;2022-12-05T13:24:50;45.98;;;24.80;;
23001;SDS011;11667;51.706;4.856;2022-12-05T13:27:21;47.45;;;23.95;;
23001;SDS011;11667;51.706;4.856;2022-12-05T13:29:54;45.90;;;23.92;;
23001;SDS011;11667;51.706;4.856;2022-12-05T13:32:30;43.80;;;23.40;;
23001;SDS011;11667;51.706;4.856;2022-12-05T13:35:07;47.27;;;23.22;;
23001;SDS011;11667;51.706;4.856;2022-12-05T13:37:36;45.78;;;24.32;;
23001;SDS011;11667;51.706;4.856;2022-12-05T13:40:34;45.20;;;23.38;;
23001;SDS011;11667;51.706;4.856;2022-12-05T13:43:24;47.35;;;23.95;;
23001;SDS011;11667;51.706;4.856;2022-12-05T13:48:34;45.50;;;23.55;;
23001;SDS011;11667;51.706;4.856;2022-12-05T13:51:20;39.05;;;20.08;;
23001;SDS011;11667;51.706;4.856;2022-12-05T13:53:58;42.30;;;21.10;;
23001;SDS011;11667;51.706;4.856;2022-12-05T13:57:01;38.80;;;19.50;;
23001;SDS011;11667;51.706;4.856;2022-12-05T14:03:00;38.20;;;19.70;;
23001;SDS011;11667;51.706;4.856;2022-12-05T14:05:00;36.75;;;18.70;;
23001;SDS011;11667;51.706;4.856;2022-12-05T14:07:39;40.10;;;19.55;;
23001;SDS011;11667;51.706;4.856;2022-12-05T14:10:06;35.98;;;17.20;;
23001;SDS011;11667;51.706;4.856;2022-12-05T14:12:47;33.83;;;16.80;;
23001;SDS011;11667;51.706;4.856;2022-12-05T14:18:00;29.10;;;14.20;;
23001;SDS011;11667;51.706;4.856;2022-12-05T14:36:58;28.15;;;11.93;;
23001;SDS011;11667;51.706;4.856;2022-12-05T14:42:24;26.90;;;12.05;;
23001;SDS011;11667;51.706;4.856;2022-12-05T14:44:51;29.82;;;11.65;;
23001;SDS011;11667;51.706;4.856;2022-12-05T14:47:24;28.25;;;12.05;;
23001;SDS011;11667;51.706;4.856;2022-12-05T14:52:29;27.37;;;12.05;;
23001;SDS011;11667;51.706;4.856;2022-12-05T14:55:10;28.10;;;12.00;;
23001;SDS011;11667;51.706;4.856;2022-12-05T14:57:46;27.22;;;11.80;;
23001;SDS011;11667;51.706;4.856;2022-12-05T15:00:20;28.65;;;12.58;;
23001;SDS011;11667;51.706;4.856;2022-12-05T15:02:50;29.80;;;12.13;;
23001;SDS011;11667;51.706;4.856;2022-12-05T15:05:25;30.12;;;11.80;;
23001;SDS011;11667;51.706;4.856;2022-12-05T15:07:57;29.02;;;12.60;;
23001;SDS011;11667;51.706;4.856;2022-12-05T15:10:28;25.95;;;12.20;;
23001;SDS011;11667;51.706;4.856;2022-12-05T15:13:08;28.92;;;11.78;;
23001;SDS011;11667;51.706;4.856;2022-12-05T15:18:43;28.42;;;12.90;;
23001;SDS011;11667;51.706;4.856;2022-12-05T15:21:25;30.45;;;12.37;;
23001;SDS011;11667;51.706;4.856;2022-12-05T15:23:58;30.48;;;12.85;;
23001;SDS011;11667;51.706;4.856;2022-12-05T15:26:39;37.45;;;14.07;;
23001;SDS011;11667;51.706;4.856;2022-12-05T15:31:56;30.55;;;14.05;;
23001;SDS011;11667;51.706;4.856;2022-12-05T15:34:49;33.30;;;14.10;;
23001;SDS011;11667;51.706;4.856;2022-12-05T15:40:22;33.60;;;14.60;;
23001;SDS011;11667;51.706;4.856;2022-12-05T15:42:53;31.10;;;14.43;;
23001;SDS011;11667;51.706;4.856;2022-12-05T15:45:24;37.67;;;14.60;;
23001;SDS011;11667;51.706;4.856;2022-12-05T15:47:56;31.75;;;14.65;;
23001;SDS011;11667;51.706;4.856;2022-12-05T15:50:40;32.88;;;14.78;;
23001;SDS011;11667;51.706;4.856;2022-12-05T15:53:18;35.25;;;14.07;;
23001;SDS011;11667;51.706;4.856;2022-12-05T15:55:53;33.85;;;14.23;;
23001;SDS011;11667;51.706;4.856;2022-12-05T15:58:24;34.08;;;14.47;;
23001;SDS011;11667;51.706;4.856;2022-12-05T16:00:56;36.55;;;16.12;;
23001;SDS011;11667;51.706;4.856;2022-12-05T16:06:13;40.52;;;16.25;;
23001;SDS011;11667;51.706;4.856;2022-12-05T16:08:46;34.40;;;15.98;;
23001;SDS011;11667;51.706;4.856;2022-12-05T16:11:17;35.38;;;15.25;;
23001;SDS011;11667;51.706;4.856;2022-12-05T16:13:48;38.25;;;16.37;;
23001;SDS011;11667;51.706;4.856;2022-12-05T16:16:25;39.27;;;16.00;;
23001;SDS011;11667;51.706;4.856;2022-12-05T16:21:33;41.45;;;15.93;;
23001;SDS011;11667;51.706;4.856;2022-12-05T16:24:29;40.98;;;17.50;;
23001;SDS011;11667;51.706;4.856;2022-12-05T16:26:56;42.05;;;16.65;;
23001;SDS011;11667;51.706;4.856;2022-12-05T16:29:24;37.10;;;16.65;;
23001;SDS011;11667;51.706;4.856;2022-12-05T16:31:56;40.98;;;16.55;;
23001;SDS011;11667;51.706;4.856;2022-12-05T16:34:27;42.40;;;16.73;;
23001;SDS011;11667;51.706;4.856;2022-12-05T16:36:57;41.60;;;16.10;;
23001;SDS011;11667;51.706;4.856;2022-12-05T16:39:26;36.20;;;15.58;;
23001;SDS011;11667;51.706;4.856;2022-12-05T16:41:56;36.17;;;15.32;;
23001;SDS011;11667;51.706;4.856;2022-12-05T16:47:01;38.95;;;15.95;;
23001;SDS011;11667;51.706;4.856;2022-12-05T16:49:31;38.38;;;15.90;;
23001;SDS011;11667;51.706;4.856;2022-12-05T16:52:10;39.78;;;16.35;;
23001;SDS011;11667;51.706;4.856;2022-12-05T16:54:41;37.83;;;16.32;;
23001;SDS011;11667;51.706;4.856;2022-12-05T16:57:12;47.17;;;17.85;;
23001;SDS011;11667;51.706;4.856;2022-12-05T16:59:43;48.17;;;18.20;;
23001;SDS011;11667;51.706;4.856;2022-12-05T17:02:15;43.38;;;17.75;;
23001;SDS011;11667;51.706;4.856;2022-12-05T17:04:45;44.65;;;18.87;;
23001;SDS011;11667;51.706;4.856;2022-12-05T17:07:15;47.10;;;18.52;;
23001;SDS011;11667;51.706;4.856;2022-12-05T17:09:44;41.48;;;18.25;;
23001;SDS011;11667;51.706;4.856;2022-12-05T17:12:15;50.17;;;18.85;;
23001;SDS011;11667;51.706;4.856;2022-12-05T17:14:46;38.85;;;18.57;;
23001;SDS011;11667;51.706;4.856;2022-12-05T17:17:15;38.92;;;17.02;;
23001;SDS011;11667;51.706;4.856;2022-12-05T17:19:45;41.10;;;17.92;;
23001;SDS011;11667;51.706;4.856;2022-12-05T17:22:14;39.30;;;16.97;;
23001;SDS011;11667;51.706;4.856;2022-12-05T17:24:44;36.03;;;16.67;;
23001;SDS011;11667;51.706;4.856;2022-12-05T17:27:14;36.48;;;17.05;;
23001;SDS011;11667;51.706;4.856;2022-12-05T17:29:44;37.60;;;16.20;;
23001;SDS011;11667;51.706;4.856;2022-12-05T17:32:13;40.52;;;16.30;;
23001;SDS011;11667;51.706;4.856;2022-12-05T17:34:42;37.60;;;16.60;;
23001;SDS011;11667;51.706;4.856;2022-12-05T17:37:12;39.15;;;16.85;;
23001;SDS011;11667;51.706;4.856;2022-12-05T17:39:41;40.48;;;17.12;;
23001;SDS011;11667;51.706;4.856;2022-12-05T17:42:11;37.05;;;16.67;;